createdAt,value
2023-06-08T00:00:57.826Z,119.97
2023-06-08T00:03:27.584Z,121.10
2023-06-08T00:05:54.974Z,121.20
2023-06-08T00:08:24.106Z,120.80
2023-06-08T00:10:51.580Z,120.27
2023-06-08T00:13:19.240Z,120.93
2023-06-08T00:15:46.742Z,120.30
2023-06-08T00:18:14.549Z,120.77
2023-06-08T00:20:42.524Z,120.47
2023-06-08T00:23:10.147Z,119.90
2023-06-08T00:25:38.011Z,120.80
2023-06-08T00:28:05.333Z,120.47
2023-06-08T00:30:32.567Z,120.17
2023-06-08T00:33:00.502Z,120.77
2023-06-08T00:35:27.578Z,120.67
2023-06-08T00:37:55.842Z,119.87
2023-06-08T00:40:22.967Z,120.60
2023-06-08T00:42:51.565Z,120.20
2023-06-08T00:45:18.827Z,121.07
2023-06-08T00:47:49.113Z,120.10
2023-06-08T00:50:19.936Z,120.07
2023-06-08T00:52:47.169Z,120.70
2023-06-08T00:55:14.549Z,119.70
2023-06-08T00:57:49.034Z,120.80
2023-06-08T01:00:16.919Z,120.70
2023-06-08T01:02:44.495Z,120.57
2023-06-08T01:05:13.916Z,120.63
2023-06-08T01:08:50.164Z,120.03
2023-06-08T01:11:57.922Z,120.53
2023-06-08T01:14:34.323Z,120.57
2023-06-08T01:17:06.164Z,119.90
2023-06-08T01:20:07.537Z,120.27
2023-06-08T01:23:08.645Z,120.00
2023-06-08T01:25:37.873Z,120.33
2023-06-08T01:28:14.447Z,120.70
2023-06-08T01:30:50.075Z,120.23
2023-06-08T01:33:22.927Z,120.27
2023-06-08T01:36:23.139Z,120.40
2023-06-08T01:39:08.543Z,120.67
2023-06-08T01:41:45.259Z,120.67
2023-06-08T01:44:16.505Z,120.10
2023-06-08T01:46:57.185Z,120.17
2023-06-08T01:49:29.701Z,120.50
2023-06-08T01:51:58.243Z,120.23
2023-06-08T01:54:25.987Z,120.30
2023-06-08T01:56:53.537Z,120.43
2023-06-08T01:59:21.062Z,119.87
2023-06-08T02:01:48.778Z,120.17
2023-06-08T02:04:16.373Z,120.10
2023-06-08T02:06:44.493Z,119.77
2023-06-08T02:09:11.670Z,120.43
2023-06-08T02:11:40.193Z,119.47
2023-06-08T02:14:07.252Z,120.00
2023-06-08T02:16:36.094Z,120.67
2023-06-08T02:19:04.377Z,120.80
2023-06-08T02:21:32.114Z,119.77
2023-06-08T02:23:59.613Z,120.90
2023-06-08T02:26:26.827Z,120.13
2023-06-08T02:28:54.157Z,119.90
2023-06-08T02:31:22.520Z,119.90
2023-06-08T02:33:52.567Z,120.10
2023-06-08T02:36:20.120Z,119.77
2023-06-08T02:38:47.807Z,120.37
2023-06-08T02:41:15.736Z,120.00
2023-06-08T02:43:44.266Z,119.93
2023-06-08T02:46:12.121Z,119.90
2023-06-08T02:48:40.614Z,120.00
2023-06-08T02:51:08.383Z,120.43
2023-06-08T02:53:36.949Z,120.23
2023-06-08T02:56:04.709Z,120.80
2023-06-08T02:58:32.305Z,120.20
2023-06-08T03:01:19.564Z,120.27
2023-06-08T03:03:54.642Z,119.70
2023-06-08T03:06:28.098Z,120.60
2023-06-08T03:08:59.330Z,119.70
2023-06-08T03:11:29.290Z,119.40
2023-06-08T03:13:56.840Z,120.40
2023-06-08T03:16:24.092Z,119.77
2023-06-08T03:18:52.102Z,119.80
2023-06-08T03:21:21.111Z,120.03
2023-06-08T03:23:51.350Z,119.90
2023-06-08T03:26:21.477Z,119.83
2023-06-08T03:28:49.339Z,119.07
2023-06-08T03:31:17.790Z,119.50
2023-06-08T03:33:50.990Z,119.80
2023-06-08T03:36:19.122Z,119.37
2023-06-08T03:38:47.090Z,119.17
2023-06-08T03:41:17.613Z,119.70
2023-06-08T03:43:49.082Z,119.60
2023-06-08T03:46:16.867Z,119.07
2023-06-08T03:48:44.901Z,119.63
2023-06-08T03:51:15.811Z,120.23
2023-06-08T03:53:43.834Z,119.30
2023-06-08T03:56:11.890Z,119.50
2023-06-08T03:58:42.949Z,119.83
2023-06-08T04:01:11.359Z,119.80
2023-06-08T04:03:39.454Z,119.17
2023-06-08T04:06:09.712Z,119.30
2023-06-08T04:08:42.880Z,119.30
2023-06-08T04:11:11.035Z,119.60
2023-06-08T04:13:42.630Z,119.37
2023-06-08T04:16:14.022Z,119.43
2023-06-08T04:18:47.697Z,119.50
2023-06-08T04:21:16.894Z,119.03
2023-06-08T04:23:45.355Z,119.30
2023-06-08T04:26:13.330Z,119.40
2023-06-08T04:28:43.020Z,118.97
2023-06-08T04:31:11.611Z,119.30
2023-06-08T04:33:39.548Z,119.00
2023-06-08T04:36:07.995Z,118.87
2023-06-08T04:38:36.162Z,119.33
2023-06-08T04:41:03.728Z,119.23
2023-06-08T04:43:33.629Z,119.40
2023-06-08T04:46:08.556Z,119.20
2023-06-08T04:48:38.217Z,119.27
2023-06-08T04:51:05.606Z,119.13
2023-06-08T04:53:36.515Z,119.27
2023-06-08T04:56:04.284Z,119.10
2023-06-08T04:58:33.031Z,119.57
2023-06-08T05:01:00.945Z,118.80
2023-06-08T05:03:28.259Z,119.20
2023-06-08T05:05:56.290Z,119.30
2023-06-08T05:08:23.924Z,118.63
2023-06-08T05:10:51.064Z,118.97
2023-06-08T05:13:18.609Z,118.73
2023-06-08T05:15:46.566Z,119.43
2023-06-08T05:18:13.675Z,119.00
2023-06-08T05:20:41.296Z,118.80
2023-06-08T05:23:08.808Z,118.97
2023-06-08T05:25:38.154Z,118.83
2023-06-08T05:28:06.094Z,119.10
2023-06-08T05:30:33.837Z,118.53
2023-06-08T05:33:01.468Z,118.60
2023-06-08T05:35:29.409Z,118.87
2023-06-08T05:37:57.054Z,118.70
2023-06-08T05:40:25.649Z,118.50
2023-06-08T05:42:53.192Z,118.27
2023-06-08T05:45:20.461Z,118.80
2023-06-08T05:47:48.336Z,117.80
2023-06-08T05:50:15.928Z,117.90
2023-06-08T05:52:43.474Z,117.50
2023-06-08T05:55:12.768Z,117.70
2023-06-08T05:57:41.472Z,117.50
2023-06-08T06:00:15.454Z,116.63
2023-06-08T06:02:42.884Z,117.43
2023-06-08T06:05:11.075Z,117.13
2023-06-08T06:07:39.358Z,116.60
2023-06-08T06:10:09.179Z,116.70
2023-06-08T06:12:36.855Z,116.53
2023-06-08T06:15:05.094Z,117.67
2023-06-08T06:17:32.697Z,116.77
2023-06-08T06:20:00.365Z,117.37
2023-06-08T06:22:27.434Z,117.70
2023-06-08T06:24:54.457Z,117.70
2023-06-08T06:27:21.540Z,117.10
2023-06-08T06:29:52.678Z,116.63
2023-06-08T06:32:21.348Z,117.10
2023-06-08T06:34:49.080Z,115.73
2023-06-08T06:37:16.582Z,117.30
2023-06-08T06:39:43.580Z,117.27
2023-06-08T06:42:11.271Z,116.80
2023-06-08T06:44:44.358Z,116.60
2023-06-08T06:47:11.450Z,114.53
2023-06-08T06:49:38.955Z,115.87
2023-06-08T06:52:06.918Z,116.80
2023-06-08T06:54:34.504Z,117.03
2023-06-08T06:57:01.531Z,116.30
2023-06-08T06:59:30.223Z,115.97
2023-06-08T07:01:57.366Z,116.33
2023-06-08T07:04:26.842Z,115.63
2023-06-08T07:06:54.261Z,115.17
2023-06-08T07:09:25.885Z,115.40
2023-06-08T07:12:05.937Z,114.50
2023-06-08T07:14:41.563Z,116.00
2023-06-08T07:17:08.582Z,114.47
2023-06-08T07:19:35.995Z,115.60
2023-06-08T07:22:12.311Z,116.07
2023-06-08T07:25:21.903Z,114.80
2023-06-08T07:27:41.432Z,115.60
2023-06-08T07:30:09.790Z,112.87
2023-06-08T07:32:37.365Z,113.07
2023-06-08T07:35:05.566Z,114.00
2023-06-08T07:37:34.677Z,113.00
2023-06-08T07:40:01.977Z,114.07
2023-06-08T07:42:29.444Z,113.37
2023-06-08T07:44:56.901Z,114.27
2023-06-08T07:47:23.973Z,113.30
2023-06-08T07:49:51.333Z,114.90
2023-06-08T07:52:18.945Z,117.00
2023-06-08T07:54:45.943Z,113.93
2023-06-08T07:57:14.392Z,113.80
2023-06-08T07:59:41.446Z,113.13
2023-06-08T08:03:39.295Z,111.30
2023-06-08T08:06:07.353Z,111.60
2023-06-08T08:08:34.525Z,110.83
2023-06-08T08:11:01.776Z,110.97
2023-06-08T08:13:30.110Z,110.67
2023-06-08T08:15:57.686Z,110.37
2023-06-08T08:18:24.901Z,109.43
2023-06-08T08:20:51.983Z,109.30
2023-06-08T08:23:19.541Z,111.37
2023-06-08T08:25:46.705Z,111.90
2023-06-08T08:28:15.267Z,109.07
2023-06-08T08:30:42.869Z,109.17
2023-06-08T08:33:11.076Z,109.57
2023-06-08T08:35:38.331Z,109.57
2023-06-08T08:38:05.442Z,110.80
2023-06-08T08:40:32.524Z,109.47
2023-06-08T08:43:10.600Z,109.67
2023-06-08T08:45:42.890Z,108.80
2023-06-08T08:48:14.277Z,109.70
2023-06-08T08:50:42.996Z,111.10
2023-06-08T08:53:11.711Z,113.40
2023-06-08T08:55:42.262Z,116.50
2023-06-08T08:58:10.460Z,113.50
2023-06-08T09:00:38.876Z,113.17
2023-06-08T09:03:06.744Z,112.37
2023-06-08T09:05:33.855Z,110.90
2023-06-08T09:08:00.921Z,111.40
2023-06-08T09:10:28.495Z,112.80
2023-06-08T09:12:56.551Z,113.87
2023-06-08T09:15:38.628Z,109.97
2023-06-08T09:18:18.450Z,107.97
2023-06-08T09:20:46.851Z,107.97
2023-06-08T09:23:24.169Z,108.50
2023-06-08T09:25:53.241Z,108.27
2023-06-08T09:28:29.610Z,109.37
2023-06-08T09:30:59.202Z,109.07
2023-06-08T09:33:28.902Z,108.50
2023-06-08T09:35:59.021Z,109.10
2023-06-08T09:38:30.847Z,109.47
2023-06-08T09:41:22.567Z,108.70
2023-06-08T09:46:40.327Z,108.60
2023-06-08T09:49:08.792Z,109.50
2023-06-08T09:51:38.539Z,110.40
2023-06-08T09:54:07.105Z,110.77
2023-06-08T09:56:39.193Z,110.87
2023-06-08T09:59:09.934Z,110.60
2023-06-08T10:01:44.372Z,110.33
2023-06-08T10:04:36.501Z,111.20
2023-06-08T10:07:15.173Z,112.97
2023-06-08T10:09:48.526Z,113.17
2023-06-08T10:12:16.634Z,113.40
2023-06-08T10:14:44.445Z,114.20
2023-06-08T10:17:14.072Z,113.77
2023-06-08T10:19:42.408Z,112.37
2023-06-08T10:22:11.637Z,112.73
2023-06-08T10:24:42.822Z,111.67
2023-06-08T10:27:37.126Z,111.07
2023-06-08T10:30:07.549Z,109.17
2023-06-08T10:32:40.502Z,107.40
2023-06-08T10:35:10.234Z,107.40
2023-06-08T10:37:44.616Z,107.47
2023-06-08T10:40:13.109Z,106.10
2023-06-08T10:43:03.329Z,107.50
2023-06-08T10:45:46.265Z,112.10
2023-06-08T10:48:21.367Z,109.10
2023-06-08T10:50:51.486Z,110.97
2023-06-08T10:53:56.581Z,110.40
2023-06-08T10:56:28.260Z,103.37
2023-06-08T10:58:56.411Z,102.40
2023-06-08T11:01:32.624Z,101.70
2023-06-08T11:04:01.918Z,103.70
2023-06-08T11:06:36.574Z,104.30
2023-06-08T11:09:04.816Z,104.37
2023-06-08T11:11:32.601Z,102.67
2023-06-08T11:14:02.405Z,102.47
2023-06-08T11:16:30.062Z,100.87
2023-06-08T11:18:57.692Z,102.00
2023-06-08T11:21:25.469Z,103.47
2023-06-08T11:23:52.625Z,103.47
2023-06-08T11:26:22.830Z,103.60
2023-06-08T11:28:51.909Z,104.23
2023-06-08T11:31:20.719Z,105.07
2023-06-08T11:33:50.187Z,106.70
2023-06-08T11:36:20.323Z,106.50
2023-06-08T11:38:50.862Z,108.70
2023-06-08T11:41:21.691Z,117.00
2023-06-08T11:43:52.841Z,110.10
2023-06-08T11:46:21.390Z,108.07
2023-06-08T11:48:48.418Z,112.77
2023-06-08T11:51:19.242Z,113.07
2023-06-08T11:53:46.994Z,111.20
2023-06-08T11:56:15.289Z,106.57
2023-06-08T11:58:42.457Z,105.13
2023-06-08T12:01:14.853Z,104.70
2023-06-08T12:03:50.745Z,103.40
2023-06-08T12:06:19.982Z,101.17
2023-06-08T12:08:50.323Z,102.90
2023-06-08T12:11:17.428Z,103.30
2023-06-08T12:13:46.184Z,102.63
2023-06-08T12:16:14.697Z,104.07
2023-06-08T12:18:44.851Z,105.70
2023-06-08T12:21:17.623Z,106.20
2023-06-08T12:23:45.754Z,109.17
2023-06-08T12:26:15.189Z,112.63
2023-06-08T12:28:43.360Z,112.97
2023-06-08T12:31:10.393Z,111.27
2023-06-08T12:33:37.935Z,110.90
2023-06-08T12:36:06.310Z,108.40
2023-06-08T12:38:33.969Z,106.77
2023-06-08T12:41:01.769Z,109.77
2023-06-08T12:43:29.343Z,111.07
2023-06-08T12:45:56.816Z,111.67
2023-06-08T12:48:24.329Z,110.97
2023-06-08T12:50:52.115Z,107.70
2023-06-08T12:53:19.164Z,112.90
2023-06-08T12:55:46.985Z,112.17
2023-06-08T12:58:17.481Z,112.77
2023-06-08T13:00:45.041Z,114.40
2023-06-08T13:03:12.650Z,115.97
2023-06-08T13:05:40.294Z,117.20
2023-06-08T13:08:11.032Z,118.47
2023-06-08T13:10:40.462Z,118.60
2023-06-08T13:13:08.419Z,121.13
2023-06-08T13:15:37.765Z,124.67
2023-06-08T13:18:09.838Z,121.87
2023-06-08T13:20:38.583Z,120.37
2023-06-08T13:23:06.397Z,120.77
2023-06-08T13:25:33.516Z,121.00
2023-06-08T13:28:01.194Z,121.47
2023-06-08T13:30:31.172Z,122.27
2023-06-08T13:33:01.189Z,122.17
2023-06-08T13:35:30.307Z,122.33
2023-06-08T13:37:58.254Z,122.03
2023-06-08T13:40:25.785Z,121.90
2023-06-08T13:42:53.372Z,121.73
2023-06-08T13:45:21.616Z,121.73
2023-06-08T13:47:51.965Z,121.33
2023-06-08T13:50:19.769Z,121.80
2023-06-08T13:52:47.554Z,121.83
2023-06-08T13:55:15.284Z,122.07
2023-06-08T13:57:42.344Z,121.60
2023-06-08T14:00:12.199Z,122.50
2023-06-08T14:02:41.224Z,122.67
2023-06-08T14:05:09.680Z,122.27
2023-06-08T14:07:37.468Z,123.37
2023-06-08T14:10:07.382Z,123.37
2023-06-08T14:12:37.915Z,123.60
2023-06-08T14:15:07.039Z,124.17
2023-06-08T14:17:34.537Z,123.50
2023-06-08T14:20:01.732Z,123.37
2023-06-08T14:22:29.488Z,122.93
2023-06-08T14:24:56.498Z,122.37
2023-06-08T14:27:23.971Z,121.97
2023-06-08T14:29:51.502Z,121.87
2023-06-08T14:32:19.232Z,121.40
2023-06-08T14:34:46.560Z,121.27
2023-06-08T14:37:14.076Z,121.07
2023-06-08T14:39:41.117Z,121.47
2023-06-08T14:42:08.894Z,120.70
2023-06-08T14:44:36.313Z,120.70
2023-06-08T14:47:03.937Z,120.30
2023-06-08T14:49:38.002Z,119.97
2023-06-08T14:52:08.755Z,121.20
2023-06-08T14:54:35.894Z,120.43
2023-06-08T14:57:03.662Z,120.60
2023-06-08T14:59:31.525Z,120.57
2023-06-08T15:01:59.199Z,120.77
2023-06-08T15:04:26.817Z,120.80
2023-06-08T15:06:54.402Z,120.50
2023-06-08T15:09:22.471Z,120.70
2023-06-08T15:11:49.636Z,120.77
2023-06-08T15:14:17.248Z,120.60
2023-06-08T15:16:44.732Z,119.57
2023-06-08T15:19:12.319Z,120.40
2023-06-08T15:21:39.315Z,120.57
2023-06-08T15:24:07.126Z,120.37
2023-06-08T15:26:34.633Z,120.30
2023-06-08T15:29:02.149Z,120.50
2023-06-08T15:31:30.865Z,120.47
2023-06-08T15:33:57.989Z,120.33
2023-06-08T15:36:25.142Z,120.47
2023-06-08T15:38:52.649Z,120.07
2023-06-08T15:41:20.196Z,120.17
2023-06-08T15:43:47.267Z,119.80
2023-06-08T15:46:15.224Z,120.50
2023-06-08T15:48:42.301Z,120.17
2023-06-08T15:51:12.656Z,119.80
2023-06-08T15:53:40.343Z,119.87
2023-06-08T15:56:07.394Z,120.20
2023-06-08T15:58:34.394Z,119.90
2023-06-08T16:01:01.976Z,119.87
2023-06-08T16:03:30.968Z,120.20
2023-06-08T16:06:00.220Z,119.77
2023-06-08T16:08:27.940Z,119.60
2023-06-08T16:10:57.733Z,119.67
2023-06-08T16:13:25.970Z,119.37
2023-06-08T16:15:53.081Z,119.03
2023-06-08T16:18:21.575Z,118.80
2023-06-08T16:20:51.671Z,119.30
2023-06-08T16:23:19.635Z,118.57
2023-06-08T16:25:47.092Z,119.03
2023-06-08T16:28:14.129Z,119.07
2023-06-08T16:30:41.722Z,119.27
2023-06-08T16:33:09.939Z,119.37
2023-06-08T16:35:37.544Z,119.10
2023-06-08T16:38:05.157Z,118.93
2023-06-08T16:40:32.287Z,119.00
2023-06-08T16:42:59.879Z,119.37
2023-06-08T16:45:30.293Z,117.20
2023-06-08T16:47:58.184Z,118.80
2023-06-08T16:50:26.195Z,118.10
2023-06-08T16:52:53.712Z,118.50
2023-06-08T16:55:20.887Z,117.70
2023-06-08T16:57:48.523Z,117.90
2023-06-08T17:00:16.746Z,117.40
2023-06-08T17:02:44.283Z,117.10
2023-06-08T17:05:11.937Z,118.17
2023-06-08T17:07:39.901Z,118.40
2023-06-08T17:10:08.331Z,118.17
2023-06-08T17:12:35.771Z,118.30
2023-06-08T17:15:03.587Z,118.03
2023-06-08T17:17:33.371Z,117.87
2023-06-08T17:20:03.613Z,118.30
2023-06-08T17:22:31.692Z,118.87
2023-06-08T17:24:58.958Z,118.20
2023-06-08T17:27:26.120Z,117.67
2023-06-08T17:29:54.370Z,116.87
2023-06-08T17:32:21.595Z,117.90
2023-06-08T17:34:49.248Z,118.37
2023-06-08T17:37:16.422Z,117.67
2023-06-08T17:39:43.515Z,117.37
2023-06-08T17:42:11.018Z,115.80
2023-06-08T17:44:38.091Z,117.33
2023-06-08T17:47:06.748Z,116.97
2023-06-08T17:49:35.318Z,115.53
2023-06-08T17:52:03.350Z,116.70
2023-06-08T17:54:30.543Z,117.57
2023-06-08T17:56:58.060Z,116.07
2023-06-08T17:59:25.764Z,117.93
2023-06-08T18:01:52.872Z,117.90
2023-06-08T18:04:20.094Z,117.60
2023-06-08T18:06:47.369Z,118.57
2023-06-08T18:09:15.123Z,117.70
2023-06-08T18:11:42.909Z,116.87
2023-06-08T18:14:10.510Z,117.80
2023-06-08T18:16:38.060Z,117.30
2023-06-08T18:19:05.698Z,117.90
2023-06-08T18:21:33.202Z,117.83
2023-06-08T18:24:00.797Z,118.07
2023-06-08T18:26:29.030Z,117.73
2023-06-08T18:28:58.386Z,118.10
2023-06-08T18:31:29.209Z,118.67
2023-06-08T18:33:57.234Z,119.07
2023-06-08T18:36:27.604Z,119.47
2023-06-08T18:38:56.175Z,119.40
2023-06-08T18:41:23.516Z,119.17
2023-06-08T18:43:51.536Z,119.50
2023-06-08T18:46:19.184Z,119.77
2023-06-08T18:48:46.869Z,120.20
2023-06-08T18:51:14.369Z,120.60
2023-06-08T18:53:41.628Z,121.07
2023-06-08T18:56:08.713Z,121.37
2023-06-08T18:58:36.835Z,121.57
2023-06-08T19:01:04.116Z,120.60
2023-06-08T19:03:31.845Z,121.10
2023-06-08T19:05:59.894Z,121.60
2023-06-08T19:08:27.404Z,121.80
2023-06-08T19:10:55.001Z,121.97
2023-06-08T19:13:36.818Z,121.87
2023-06-08T19:16:09.924Z,121.67
2023-06-08T19:18:37.103Z,121.43
2023-06-08T19:21:04.270Z,122.30
2023-06-08T19:23:31.320Z,121.97
2023-06-08T19:25:58.398Z,121.67
2023-06-08T19:28:25.478Z,121.10
2023-06-08T19:30:53.107Z,121.27
2023-06-08T19:33:20.611Z,120.70
2023-06-08T19:35:47.824Z,121.30
2023-06-08T19:38:14.892Z,121.30
2023-06-08T19:40:41.962Z,121.00
2023-06-08T19:43:09.111Z,121.17
2023-06-08T19:45:36.680Z,120.57
2023-06-08T19:48:04.502Z,120.47
2023-06-08T19:50:31.889Z,120.97
2023-06-08T19:52:59.402Z,120.93
2023-06-08T19:55:27.056Z,120.43
2023-06-08T19:57:54.172Z,120.70
2023-06-08T20:00:21.644Z,120.87
2023-06-08T20:02:49.153Z,120.00
2023-06-08T20:05:16.336Z,121.07
2023-06-08T20:07:43.875Z,120.90
2023-06-08T20:10:11.502Z,120.40
2023-06-08T20:12:39.136Z,121.00
2023-06-08T20:15:07.308Z,119.97
2023-06-08T20:17:35.647Z,120.50
2023-06-08T20:20:04.538Z,120.60
2023-06-08T20:22:34.238Z,120.80
2023-06-08T20:25:01.735Z,120.40
2023-06-08T20:27:30.851Z,120.83
2023-06-08T20:29:58.548Z,120.97
2023-06-08T20:32:26.111Z,120.40
2023-06-08T20:34:53.290Z,120.43
2023-06-08T20:37:21.357Z,120.53
2023-06-08T20:39:48.945Z,120.67
2023-06-08T20:42:17.799Z,121.27
2023-06-08T20:44:45.424Z,121.20
2023-06-08T20:47:13.547Z,120.80
2023-06-08T20:49:40.776Z,121.20
2023-06-08T20:52:08.903Z,120.90
2023-06-08T20:54:36.579Z,120.97
2023-06-08T20:57:05.110Z,121.00
2023-06-08T20:59:32.911Z,120.90
2023-06-08T21:02:00.229Z,120.87
2023-06-08T21:04:30.973Z,120.90
2023-06-08T21:06:59.975Z,120.90
2023-06-08T21:09:27.554Z,120.23
2023-06-08T21:11:55.934Z,120.60
2023-06-08T21:14:24.679Z,120.90
2023-06-08T21:16:53.813Z,120.83
2023-06-08T21:19:21.390Z,120.70
2023-06-08T21:21:48.980Z,121.00
2023-06-08T21:24:16.669Z,120.37
2023-06-08T21:26:44.594Z,120.87
2023-06-08T21:29:12.504Z,121.23
2023-06-08T21:31:40.201Z,120.73
2023-06-08T21:34:07.739Z,120.43
2023-06-08T21:36:34.908Z,121.27
2023-06-08T21:39:02.456Z,120.30
2023-06-08T21:41:30.445Z,120.00
2023-06-08T21:43:57.903Z,120.83
2023-06-08T21:46:24.989Z,120.57
2023-06-08T21:48:52.611Z,120.33
2023-06-08T21:51:20.254Z,120.80
2023-06-08T21:53:47.837Z,120.27
2023-06-08T21:56:14.896Z,120.80
2023-06-08T21:58:42.450Z,120.37
2023-06-08T22:01:09.597Z,120.23
2023-06-08T22:03:37.190Z,120.20
2023-06-08T22:06:04.369Z,120.57
2023-06-08T22:08:31.465Z,120.37
2023-06-08T22:11:00.092Z,119.80
2023-06-08T22:13:32.207Z,119.67
2023-06-08T22:16:01.116Z,120.40
2023-06-08T22:18:29.828Z,119.90
2023-06-08T22:21:00.691Z,120.27
2023-06-08T22:23:28.548Z,119.90
2023-06-08T22:25:55.942Z,120.67
2023-06-08T22:28:25.660Z,119.67
2023-06-08T22:30:52.801Z,120.10
2023-06-08T22:33:21.233Z,119.57
2023-06-08T22:35:49.504Z,120.00
2023-06-08T22:38:16.663Z,120.03
2023-06-08T22:40:44.487Z,120.43
2023-06-08T22:43:12.664Z,120.43
2023-06-08T22:45:40.252Z,120.07
2023-06-08T22:48:07.709Z,120.53
2023-06-08T22:50:34.991Z,120.40
2023-06-08T22:53:03.144Z,120.30
2023-06-08T22:55:31.389Z,119.67
2023-06-08T22:57:59.145Z,119.97
2023-06-08T23:00:26.817Z,120.63
2023-06-08T23:02:54.409Z,120.40
2023-06-08T23:05:21.991Z,120.10
2023-06-08T23:07:49.868Z,120.10
2023-06-08T23:10:21.933Z,120.20
2023-06-08T23:12:53.376Z,120.33
2023-06-08T23:15:22.233Z,120.30
2023-06-08T23:17:49.565Z,120.30
2023-06-08T23:20:18.161Z,120.80
2023-06-08T23:22:45.735Z,119.87
2023-06-08T23:25:17.987Z,120.00
2023-06-08T23:27:46.352Z,119.97
2023-06-08T23:30:14.563Z,120.50
2023-06-08T23:32:43.587Z,120.10
2023-06-08T23:35:11.455Z,120.63
2023-06-08T23:37:38.747Z,120.50
2023-06-08T23:40:10.730Z,120.73
2023-06-08T23:42:39.753Z,120.70
2023-06-08T23:45:10.661Z,120.60
2023-06-08T23:47:39.000Z,120.50
2023-06-08T23:50:06.973Z,120.57
2023-06-08T23:52:34.035Z,120.77
2023-06-08T23:55:01.160Z,121.00
2023-06-08T23:57:28.412Z,120.60
2023-06-08T23:59:55.698Z,120.60
